Decoded Metar for NWWW (NOUMEA in NEW CALEDONIA) (IATA:NOU) | Meteo·Mobile Aviation Weather
aviador You're here:

NWWW Decoded Metar

NOUMEA in NEW CALEDONIA
Report Time2019-09-23 09:00:00
UTC Time2019-09-23 09:16:35
Flight Rules vfr VFR
Wind080° at 04 kt
W.Decomp.*RWY 11: 3.0 kt HW 2.7 kt LCW
Visibility9999 m
Phenomena:N/A
Clouds:N/A
Expected CloudBase > 3,600 ft AGL from Temp-Dew spread
CeilingNone
Temp21°C (ISA +6)
Dew Point12°C (57% RH)
AAT20.2°C
QNH1021 hPa
Density Alt686 ft
Elevation52 ft
Report Wrong Elevation
Raw Report
NWWW 230900Z AUTO 08004KT 020V150 CAVOK 21/12 Q1021 NOSIG=

Extra information for NWWW:More info

Metar Taf Metar & Taf Last 4 Metars F.Rules Stats Wind Profile Meteogram Temp Stats Airport Information Weather charts Add Link Nearby VenuesMetar ALERT Operation Metar Decoded Social comments